sensor_id;sensor_type;location;lat;lon;timestamp;P1;durP1;ratioP1;P2;durP2;ratioP2
13485;SDS011;6815;59.336;17.998;2022-07-21T00:01:13;6.10;;;4.95;;
13485;SDS011;6815;59.336;17.998;2022-07-21T00:03:39;6.82;;;4.97;;
13485;SDS011;6815;59.336;17.998;2022-07-21T00:06:05;5.68;;;5.00;;
13485;SDS011;6815;59.336;17.998;2022-07-21T00:08:31;5.30;;;4.15;;
13485;SDS011;6815;59.336;17.998;2022-07-21T00:10:56;6.65;;;5.05;;
13485;SDS011;6815;59.336;17.998;2022-07-21T00:13:22;6.00;;;4.60;;
13485;SDS011;6815;59.336;17.998;2022-07-21T00:15:47;6.43;;;5.15;;
13485;SDS011;6815;59.336;17.998;2022-07-21T00:18:14;6.00;;;5.00;;
13485;SDS011;6815;59.336;17.998;2022-07-21T00:20:40;7.03;;;5.00;;
13485;SDS011;6815;59.336;17.998;2022-07-21T00:23:06;5.50;;;5.00;;
13485;SDS011;6815;59.336;17.998;2022-07-21T00:25:31;5.55;;;4.75;;
13485;SDS011;6815;59.336;17.998;2022-07-21T00:27:57;6.03;;;5.15;;
13485;SDS011;6815;59.336;17.998;2022-07-21T00:30:22;8.65;;;5.28;;
13485;SDS011;6815;59.336;17.998;2022-07-21T00:32:48;6.90;;;5.10;;
13485;SDS011;6815;59.336;17.998;2022-07-21T00:35:14;5.65;;;5.03;;
13485;SDS011;6815;59.336;17.998;2022-07-21T00:37:40;6.10;;;5.07;;
13485;SDS011;6815;59.336;17.998;2022-07-21T00:40:06;5.05;;;4.53;;
13485;SDS011;6815;59.336;17.998;2022-07-21T00:42:33;6.20;;;5.15;;
13485;SDS011;6815;59.336;17.998;2022-07-21T00:44:59;7.05;;;5.15;;
13485;SDS011;6815;59.336;17.998;2022-07-21T00:47:27;7.10;;;5.10;;
13485;SDS011;6815;59.336;17.998;2022-07-21T00:49:54;6.97;;;4.90;;
13485;SDS011;6815;59.336;17.998;2022-07-21T00:52:21;8.05;;;5.47;;
13485;SDS011;6815;59.336;17.998;2022-07-21T00:54:46;4.72;;;4.32;;
13485;SDS011;6815;59.336;17.998;2022-07-21T00:57:13;7.03;;;4.90;;
13485;SDS011;6815;59.336;17.998;2022-07-21T00:59:39;7.10;;;4.95;;
13485;SDS011;6815;59.336;17.998;2022-07-21T01:02:06;7.70;;;5.05;;
13485;SDS011;6815;59.336;17.998;2022-07-21T01:04:33;5.63;;;4.95;;
13485;SDS011;6815;59.336;17.998;2022-07-21T01:07:00;6.25;;;5.32;;
13485;SDS011;6815;59.336;17.998;2022-07-21T01:09:26;5.80;;;4.75;;
13485;SDS011;6815;59.336;17.998;2022-07-21T01:11:52;6.18;;;4.35;;
13485;SDS011;6815;59.336;17.998;2022-07-21T01:14:18;6.50;;;5.20;;
13485;SDS011;6815;59.336;17.998;2022-07-21T01:16:44;6.10;;;4.45;;
13485;SDS011;6815;59.336;17.998;2022-07-21T01:19:11;5.60;;;4.50;;
13485;SDS011;6815;59.336;17.998;2022-07-21T01:21:38;6.07;;;4.90;;
13485;SDS011;6815;59.336;17.998;2022-07-21T01:24:05;7.57;;;4.95;;
13485;SDS011;6815;59.336;17.998;2022-07-21T01:26:31;6.85;;;4.65;;
13485;SDS011;6815;59.336;17.998;2022-07-21T01:29:06;5.47;;;4.40;;
13485;SDS011;6815;59.336;17.998;2022-07-21T01:31:33;6.15;;;5.00;;
13485;SDS011;6815;59.336;17.998;2022-07-21T01:33:59;6.63;;;4.78;;
13485;SDS011;6815;59.336;17.998;2022-07-21T01:36:24;7.47;;;5.00;;
13485;SDS011;6815;59.336;17.998;2022-07-21T01:38:50;6.13;;;4.97;;
13485;SDS011;6815;59.336;17.998;2022-07-21T01:41:34;6.22;;;4.90;;
13485;SDS011;6815;59.336;17.998;2022-07-21T01:44:01;6.80;;;4.75;;
13485;SDS011;6815;59.336;17.998;2022-07-21T01:46:30;6.60;;;4.90;;
13485;SDS011;6815;59.336;17.998;2022-07-21T01:48:59;5.57;;;4.90;;
13485;SDS011;6815;59.336;17.998;2022-07-21T01:51:25;6.85;;;4.78;;
13485;SDS011;6815;59.336;17.998;2022-07-21T01:53:51;6.35;;;5.15;;
13485;SDS011;6815;59.336;17.998;2022-07-21T01:56:22;8.05;;;5.28;;
13485;SDS011;6815;59.336;17.998;2022-07-21T01:58:51;5.95;;;4.50;;
13485;SDS011;6815;59.336;17.998;2022-07-21T02:01:19;5.65;;;4.75;;
13485;SDS011;6815;59.336;17.998;2022-07-21T02:03:46;7.57;;;5.13;;
13485;SDS011;6815;59.336;17.998;2022-07-21T02:06:13;5.55;;;4.18;;
13485;SDS011;6815;59.336;17.998;2022-07-21T02:08:39;5.72;;;4.78;;
13485;SDS011;6815;59.336;17.998;2022-07-21T02:11:07;6.43;;;5.03;;
13485;SDS011;6815;59.336;17.998;2022-07-21T02:13:32;6.40;;;4.68;;
13485;SDS011;6815;59.336;17.998;2022-07-21T02:15:58;8.27;;;4.70;;
13485;SDS011;6815;59.336;17.998;2022-07-21T02:18:23;7.78;;;5.25;;
13485;SDS011;6815;59.336;17.998;2022-07-21T02:20:49;8.98;;;4.90;;
13485;SDS011;6815;59.336;17.998;2022-07-21T02:23:15;5.82;;;4.95;;
13485;SDS011;6815;59.336;17.998;2022-07-21T02:25:42;6.38;;;4.70;;
13485;SDS011;6815;59.336;17.998;2022-07-21T02:28:08;5.80;;;5.03;;
13485;SDS011;6815;59.336;17.998;2022-07-21T02:30:33;8.70;;;5.43;;
13485;SDS011;6815;59.336;17.998;2022-07-21T02:32:59;6.72;;;4.97;;
13485;SDS011;6815;59.336;17.998;2022-07-21T02:35:24;9.50;;;5.03;;
13485;SDS011;6815;59.336;17.998;2022-07-21T02:37:50;7.30;;;5.10;;
13485;SDS011;6815;59.336;17.998;2022-07-21T02:40:15;8.85;;;5.32;;
13485;SDS011;6815;59.336;17.998;2022-07-21T02:42:41;7.50;;;5.03;;
13485;SDS011;6815;59.336;17.998;2022-07-21T02:45:07;6.05;;;4.70;;
13485;SDS011;6815;59.336;17.998;2022-07-21T02:47:46;6.35;;;4.50;;
13485;SDS011;6815;59.336;17.998;2022-07-21T02:50:26;5.43;;;4.90;;
13485;SDS011;6815;59.336;17.998;2022-07-21T02:52:58;9.85;;;4.60;;
13485;SDS011;6815;59.336;17.998;2022-07-21T02:55:27;4.93;;;4.00;;
13485;SDS011;6815;59.336;17.998;2022-07-21T02:58:06;10.02;;;5.25;;
13485;SDS011;6815;59.336;17.998;2022-07-21T03:00:32;5.80;;;4.85;;
13485;SDS011;6815;59.336;17.998;2022-07-21T03:03:00;5.82;;;4.47;;
13485;SDS011;6815;59.336;17.998;2022-07-21T03:05:27;4.60;;;4.20;;
13485;SDS011;6815;59.336;17.998;2022-07-21T03:07:52;6.45;;;4.88;;
13485;SDS011;6815;59.336;17.998;2022-07-21T03:10:18;5.88;;;4.88;;
13485;SDS011;6815;59.336;17.998;2022-07-21T03:12:43;7.00;;;4.55;;
13485;SDS011;6815;59.336;17.998;2022-07-21T03:15:09;6.40;;;4.75;;
13485;SDS011;6815;59.336;17.998;2022-07-21T03:17:34;5.20;;;4.53;;
13485;SDS011;6815;59.336;17.998;2022-07-21T03:20:00;7.00;;;5.32;;
13485;SDS011;6815;59.336;17.998;2022-07-21T03:22:26;6.93;;;5.00;;
13485;SDS011;6815;59.336;17.998;2022-07-21T03:24:51;6.28;;;5.10;;
13485;SDS011;6815;59.336;17.998;2022-07-21T03:27:17;6.03;;;5.15;;
13485;SDS011;6815;59.336;17.998;2022-07-21T03:29:43;6.90;;;4.57;;
13485;SDS011;6815;59.336;17.998;2022-07-21T03:32:08;6.95;;;4.80;;
13485;SDS011;6815;59.336;17.998;2022-07-21T03:34:34;7.85;;;4.85;;
13485;SDS011;6815;59.336;17.998;2022-07-21T03:37:00;7.15;;;4.85;;
13485;SDS011;6815;59.336;17.998;2022-07-21T03:39:25;5.75;;;5.13;;
13485;SDS011;6815;59.336;17.998;2022-07-21T03:41:50;5.93;;;4.95;;
13485;SDS011;6815;59.336;17.998;2022-07-21T03:44:16;9.23;;;5.85;;
13485;SDS011;6815;59.336;17.998;2022-07-21T03:46:43;6.20;;;5.13;;
13485;SDS011;6815;59.336;17.998;2022-07-21T03:49:08;5.95;;;5.10;;
13485;SDS011;6815;59.336;17.998;2022-07-21T03:51:33;6.30;;;4.90;;
13485;SDS011;6815;59.336;17.998;2022-07-21T03:53:59;7.25;;;5.32;;
13485;SDS011;6815;59.336;17.998;2022-07-21T03:56:26;5.22;;;4.68;;
13485;SDS011;6815;59.336;17.998;2022-07-21T03:58:52;7.07;;;5.00;;
13485;SDS011;6815;59.336;17.998;2022-07-21T04:01:18;5.97;;;4.95;;
13485;SDS011;6815;59.336;17.998;2022-07-21T04:03:43;7.28;;;5.25;;
13485;SDS011;6815;59.336;17.998;2022-07-21T04:06:09;6.82;;;5.07;;
13485;SDS011;6815;59.336;17.998;2022-07-21T04:08:36;6.65;;;5.53;;
13485;SDS011;6815;59.336;17.998;2022-07-21T04:11:02;6.90;;;5.38;;
13485;SDS011;6815;59.336;17.998;2022-07-21T04:13:27;6.47;;;4.93;;
13485;SDS011;6815;59.336;17.998;2022-07-21T04:15:52;5.50;;;5.00;;
13485;SDS011;6815;59.336;17.998;2022-07-21T04:18:18;7.97;;;5.75;;
13485;SDS011;6815;59.336;17.998;2022-07-21T04:20:43;7.60;;;5.30;;
13485;SDS011;6815;59.336;17.998;2022-07-21T04:23:09;6.93;;;5.22;;
13485;SDS011;6815;59.336;17.998;2022-07-21T04:25:34;5.82;;;5.10;;
13485;SDS011;6815;59.336;17.998;2022-07-21T04:28:00;7.18;;;5.15;;
13485;SDS011;6815;59.336;17.998;2022-07-21T04:30:28;7.55;;;5.60;;
13485;SDS011;6815;59.336;17.998;2022-07-21T04:32:53;7.80;;;4.97;;
13485;SDS011;6815;59.336;17.998;2022-07-21T04:35:19;6.72;;;5.03;;
13485;SDS011;6815;59.336;17.998;2022-07-21T04:37:44;10.02;;;5.70;;
13485;SDS011;6815;59.336;17.998;2022-07-21T04:40:11;5.90;;;4.90;;
13485;SDS011;6815;59.336;17.998;2022-07-21T04:42:39;7.53;;;4.50;;
13485;SDS011;6815;59.336;17.998;2022-07-21T04:45:05;6.10;;;5.50;;
13485;SDS011;6815;59.336;17.998;2022-07-21T04:47:32;5.78;;;5.22;;
13485;SDS011;6815;59.336;17.998;2022-07-21T04:49:57;7.88;;;5.25;;
13485;SDS011;6815;59.336;17.998;2022-07-21T04:52:23;7.00;;;5.78;;
13485;SDS011;6815;59.336;17.998;2022-07-21T04:54:48;6.32;;;4.90;;
13485;SDS011;6815;59.336;17.998;2022-07-21T04:57:14;7.07;;;5.55;;
13485;SDS011;6815;59.336;17.998;2022-07-21T04:59:39;7.72;;;5.78;;
13485;SDS011;6815;59.336;17.998;2022-07-21T05:02:05;7.45;;;5.28;;
13485;SDS011;6815;59.336;17.998;2022-07-21T05:04:30;7.15;;;5.15;;
13485;SDS011;6815;59.336;17.998;2022-07-21T05:06:56;6.35;;;5.60;;
13485;SDS011;6815;59.336;17.998;2022-07-21T05:09:22;7.63;;;5.43;;
13485;SDS011;6815;59.336;17.998;2022-07-21T05:11:47;6.82;;;5.95;;
13485;SDS011;6815;59.336;17.998;2022-07-21T05:14:13;6.30;;;5.70;;
13485;SDS011;6815;59.336;17.998;2022-07-21T05:16:38;6.07;;;5.10;;
13485;SDS011;6815;59.336;17.998;2022-07-21T05:19:04;7.43;;;5.93;;
13485;SDS011;6815;59.336;17.998;2022-07-21T05:21:29;6.82;;;5.65;;
13485;SDS011;6815;59.336;17.998;2022-07-21T05:23:55;6.68;;;5.90;;
13485;SDS011;6815;59.336;17.998;2022-07-21T05:26:21;6.35;;;5.25;;
13485;SDS011;6815;59.336;17.998;2022-07-21T05:28:46;6.68;;;6.00;;
13485;SDS011;6815;59.336;17.998;2022-07-21T05:31:12;6.38;;;5.50;;
13485;SDS011;6815;59.336;17.998;2022-07-21T05:33:38;7.72;;;5.07;;
13485;SDS011;6815;59.336;17.998;2022-07-21T05:36:04;7.25;;;5.60;;
13485;SDS011;6815;59.336;17.998;2022-07-21T05:38:30;6.90;;;6.03;;
13485;SDS011;6815;59.336;17.998;2022-07-21T05:40:56;6.55;;;5.65;;
13485;SDS011;6815;59.336;17.998;2022-07-21T05:43:24;6.78;;;5.95;;
13485;SDS011;6815;59.336;17.998;2022-07-21T05:45:50;6.32;;;5.72;;
13485;SDS011;6815;59.336;17.998;2022-07-21T05:48:15;7.13;;;6.00;;
13485;SDS011;6815;59.336;17.998;2022-07-21T05:50:40;6.35;;;5.72;;
13485;SDS011;6815;59.336;17.998;2022-07-21T05:53:06;6.10;;;5.50;;
13485;SDS011;6815;59.336;17.998;2022-07-21T05:55:31;6.40;;;5.90;;
13485;SDS011;6815;59.336;17.998;2022-07-21T05:57:57;7.15;;;5.13;;
13485;SDS011;6815;59.336;17.998;2022-07-21T06:00:22;6.53;;;5.90;;
13485;SDS011;6815;59.336;17.998;2022-07-21T06:02:48;6.38;;;5.68;;
13485;SDS011;6815;59.336;17.998;2022-07-21T06:05:13;6.20;;;5.70;;
13485;SDS011;6815;59.336;17.998;2022-07-21T06:07:39;7.10;;;6.00;;
13485;SDS011;6815;59.336;17.998;2022-07-21T06:10:05;6.85;;;5.60;;
13485;SDS011;6815;59.336;17.998;2022-07-21T06:12:31;6.28;;;5.65;;
13485;SDS011;6815;59.336;17.998;2022-07-21T06:14:58;6.70;;;6.03;;
13485;SDS011;6815;59.336;17.998;2022-07-21T06:17:25;9.20;;;5.88;;
13485;SDS011;6815;59.336;17.998;2022-07-21T06:19:50;7.20;;;5.72;;
13485;SDS011;6815;59.336;17.998;2022-07-21T06:22:16;7.07;;;6.38;;
13485;SDS011;6815;59.336;17.998;2022-07-21T06:24:41;8.48;;;6.28;;
13485;SDS011;6815;59.336;17.998;2022-07-21T06:27:07;6.20;;;5.60;;
13485;SDS011;6815;59.336;17.998;2022-07-21T06:29:33;8.02;;;6.03;;
13485;SDS011;6815;59.336;17.998;2022-07-21T06:31:58;7.25;;;6.07;;
13485;SDS011;6815;59.336;17.998;2022-07-21T06:34:24;8.45;;;6.75;;
13485;SDS011;6815;59.336;17.998;2022-07-21T06:36:49;6.93;;;6.30;;
13485;SDS011;6815;59.336;17.998;2022-07-21T06:39:15;6.65;;;5.75;;
13485;SDS011;6815;59.336;17.998;2022-07-21T06:41:40;7.25;;;6.50;;
13485;SDS011;6815;59.336;17.998;2022-07-21T06:44:06;7.85;;;6.32;;
13485;SDS011;6815;59.336;17.998;2022-07-21T06:46:32;7.10;;;6.40;;
13485;SDS011;6815;59.336;17.998;2022-07-21T06:48:59;6.40;;;5.75;;
13485;SDS011;6815;59.336;17.998;2022-07-21T06:51:24;7.30;;;6.60;;
13485;SDS011;6815;59.336;17.998;2022-07-21T06:53:50;7.70;;;6.30;;
13485;SDS011;6815;59.336;17.998;2022-07-21T06:56:21;7.57;;;5.97;;
13485;SDS011;6815;59.336;17.998;2022-07-21T06:58:48;7.30;;;6.60;;
13485;SDS011;6815;59.336;17.998;2022-07-21T07:01:14;6.60;;;5.90;;
13485;SDS011;6815;59.336;17.998;2022-07-21T07:03:41;7.95;;;6.60;;
13485;SDS011;6815;59.336;17.998;2022-07-21T07:06:07;7.28;;;6.50;;
13485;SDS011;6815;59.336;17.998;2022-07-21T07:08:33;6.95;;;6.25;;
13485;SDS011;6815;59.336;17.998;2022-07-21T07:10:59;8.80;;;6.40;;
13485;SDS011;6815;59.336;17.998;2022-07-21T07:13:24;8.50;;;6.65;;
13485;SDS011;6815;59.336;17.998;2022-07-21T07:15:50;7.13;;;6.45;;
13485;SDS011;6815;59.336;17.998;2022-07-21T07:18:15;6.70;;;5.82;;
13485;SDS011;6815;59.336;17.998;2022-07-21T07:20:42;7.18;;;6.47;;
13485;SDS011;6815;59.336;17.998;2022-07-21T07:23:07;8.10;;;6.65;;
13485;SDS011;6815;59.336;17.998;2022-07-21T07:25:33;7.47;;;6.78;;
13485;SDS011;6815;59.336;17.998;2022-07-21T07:27:58;7.35;;;6.65;;
13485;SDS011;6815;59.336;17.998;2022-07-21T07:30:24;7.47;;;6.78;;
13485;SDS011;6815;59.336;17.998;2022-07-21T07:32:49;7.97;;;7.18;;
13485;SDS011;6815;59.336;17.998;2022-07-21T07:35:15;7.38;;;6.68;;
13485;SDS011;6815;59.336;17.998;2022-07-21T07:37:42;7.22;;;6.53;;
13485;SDS011;6815;59.336;17.998;2022-07-21T07:40:19;7.40;;;6.65;;
13485;SDS011;6815;59.336;17.998;2022-07-21T07:42:46;8.48;;;6.93;;
13485;SDS011;6815;59.336;17.998;2022-07-21T07:45:11;9.30;;;7.05;;
13485;SDS011;6815;59.336;17.998;2022-07-21T07:47:38;7.45;;;6.75;;
13485;SDS011;6815;59.336;17.998;2022-07-21T07:50:05;10.07;;;7.00;;
13485;SDS011;6815;59.336;17.998;2022-07-21T07:52:36;7.63;;;6.93;;
13485;SDS011;6815;59.336;17.998;2022-07-21T07:55:03;8.55;;;7.25;;
13485;SDS011;6815;59.336;17.998;2022-07-21T07:57:33;9.82;;;7.80;;
13485;SDS011;6815;59.336;17.998;2022-07-21T08:00:00;9.30;;;7.47;;
13485;SDS011;6815;59.336;17.998;2022-07-21T08:02:26;8.15;;;7.35;;
13485;SDS011;6815;59.336;17.998;2022-07-21T08:04:51;8.48;;;7.22;;
13485;SDS011;6815;59.336;17.998;2022-07-21T08:07:17;9.45;;;7.45;;
13485;SDS011;6815;59.336;17.998;2022-07-21T08:09:42;7.60;;;6.90;;
13485;SDS011;6815;59.336;17.998;2022-07-21T08:12:07;8.52;;;7.18;;
13485;SDS011;6815;59.336;17.998;2022-07-21T08:14:33;8.10;;;7.30;;
13485;SDS011;6815;59.336;17.998;2022-07-21T08:16:59;7.43;;;6.60;;
13485;SDS011;6815;59.336;17.998;2022-07-21T08:19:25;9.40;;;7.72;;
13485;SDS011;6815;59.336;17.998;2022-07-21T08:21:51;8.63;;;7.05;;
13485;SDS011;6815;59.336;17.998;2022-07-21T08:24:16;12.18;;;7.20;;
13485;SDS011;6815;59.336;17.998;2022-07-21T08:26:42;9.70;;;8.05;;
13485;SDS011;6815;59.336;17.998;2022-07-21T08:29:09;9.52;;;7.90;;
13485;SDS011;6815;59.336;17.998;2022-07-21T08:31:35;7.85;;;7.13;;
13485;SDS011;6815;59.336;17.998;2022-07-21T08:34:00;9.98;;;6.85;;
13485;SDS011;6815;59.336;17.998;2022-07-21T08:36:26;9.25;;;6.88;;
13485;SDS011;6815;59.336;17.998;2022-07-21T08:38:51;7.40;;;6.57;;
13485;SDS011;6815;59.336;17.998;2022-07-21T08:41:16;9.68;;;6.93;;
13485;SDS011;6815;59.336;17.998;2022-07-21T08:43:42;7.20;;;6.35;;
13485;SDS011;6815;59.336;17.998;2022-07-21T08:46:08;8.88;;;6.82;;
13485;SDS011;6815;59.336;17.998;2022-07-21T08:48:34;7.28;;;6.57;;
13485;SDS011;6815;59.336;17.998;2022-07-21T08:51:00;8.00;;;7.30;;
13485;SDS011;6815;59.336;17.998;2022-07-21T08:53:26;7.07;;;6.47;;
13485;SDS011;6815;59.336;17.998;2022-07-21T08:55:53;8.23;;;7.38;;
13485;SDS011;6815;59.336;17.998;2022-07-21T08:58:19;8.23;;;6.80;;
13485;SDS011;6815;59.336;17.998;2022-07-21T09:00:46;9.52;;;7.13;;
13485;SDS011;6815;59.336;17.998;2022-07-21T09:03:21;8.05;;;6.82;;
13485;SDS011;6815;59.336;17.998;2022-07-21T09:08:41;9.30;;;6.40;;
13485;SDS011;6815;59.336;17.998;2022-07-21T09:11:25;7.60;;;6.60;;
13485;SDS011;6815;59.336;17.998;2022-07-21T09:14:08;6.88;;;6.18;;
13485;SDS011;6815;59.336;17.998;2022-07-21T09:16:45;8.48;;;6.63;;
13485;SDS011;6815;59.336;17.998;2022-07-21T09:19:23;7.25;;;6.55;;
13485;SDS011;6815;59.336;17.998;2022-07-21T09:21:57;7.43;;;6.55;;
13485;SDS011;6815;59.336;17.998;2022-07-21T09:24:26;7.85;;;5.97;;
13485;SDS011;6815;59.336;17.998;2022-07-21T09:27:00;7.43;;;6.65;;
13485;SDS011;6815;59.336;17.998;2022-07-21T09:29:42;10.00;;;6.10;;
13485;SDS011;6815;59.336;17.998;2022-07-21T09:32:25;8.77;;;6.65;;
13485;SDS011;6815;59.336;17.998;2022-07-21T09:34:54;7.57;;;6.07;;
13485;SDS011;6815;59.336;17.998;2022-07-21T09:37:24;9.27;;;5.90;;
13485;SDS011;6815;59.336;17.998;2022-07-21T09:39:51;7.45;;;6.07;;
13485;SDS011;6815;59.336;17.998;2022-07-21T09:42:24;6.63;;;5.93;;
13485;SDS011;6815;59.336;17.998;2022-07-21T09:44:58;7.20;;;6.43;;
13485;SDS011;6815;59.336;17.998;2022-07-21T09:47:26;6.50;;;5.75;;
13485;SDS011;6815;59.336;17.998;2022-07-21T09:49:53;8.02;;;6.05;;
13485;SDS011;6815;59.336;17.998;2022-07-21T09:52:21;10.15;;;5.93;;
13485;SDS011;6815;59.336;17.998;2022-07-21T09:54:47;6.53;;;5.63;;
13485;SDS011;6815;59.336;17.998;2022-07-21T09:57:13;6.53;;;5.45;;
13485;SDS011;6815;59.336;17.998;2022-07-21T09:59:44;6.07;;;5.30;;
13485;SDS011;6815;59.336;17.998;2022-07-21T10:02:13;5.70;;;5.10;;
13485;SDS011;6815;59.336;17.998;2022-07-21T10:04:41;5.43;;;4.90;;
13485;SDS011;6815;59.336;17.998;2022-07-21T10:07:07;6.00;;;5.13;;
13485;SDS011;6815;59.336;17.998;2022-07-21T10:09:33;6.10;;;5.45;;
13485;SDS011;6815;59.336;17.998;2022-07-21T10:11:59;6.90;;;5.60;;
13485;SDS011;6815;59.336;17.998;2022-07-21T10:14:24;5.75;;;5.25;;
13485;SDS011;6815;59.336;17.998;2022-07-21T10:16:50;6.20;;;5.55;;
13485;SDS011;6815;59.336;17.998;2022-07-21T10:24:47;9.95;;;5.55;;
13485;SDS011;6815;59.336;17.998;2022-07-21T10:27:13;6.82;;;5.00;;
13485;SDS011;6815;59.336;17.998;2022-07-21T10:32:12;7.03;;;5.32;;
13485;SDS011;6815;59.336;17.998;2022-07-21T10:34:39;7.38;;;5.65;;
13485;SDS011;6815;59.336;17.998;2022-07-21T10:37:05;5.90;;;5.30;;
13485;SDS011;6815;59.336;17.998;2022-07-21T10:39:30;7.32;;;5.38;;
13485;SDS011;6815;59.336;17.998;2022-07-21T10:41:58;8.05;;;5.57;;
13485;SDS011;6815;59.336;17.998;2022-07-21T10:46:59;9.75;;;5.70;;
13485;SDS011;6815;59.336;17.998;2022-07-21T10:57:35;5.82;;;5.25;;
13485;SDS011;6815;59.336;17.998;2022-07-21T11:00:24;7.28;;;5.10;;
13485;SDS011;6815;59.336;17.998;2022-07-21T11:02:54;6.07;;;5.07;;
13485;SDS011;6815;59.336;17.998;2022-07-21T11:05:22;6.05;;;5.10;;
13485;SDS011;6815;59.336;17.998;2022-07-21T11:10:41;5.93;;;5.13;;
13485;SDS011;6815;59.336;17.998;2022-07-21T11:13:17;12.23;;;6.68;;
13485;SDS011;6815;59.336;17.998;2022-07-21T11:18:17;12.30;;;5.20;;
13485;SDS011;6815;59.336;17.998;2022-07-21T11:21:00;8.43;;;5.50;;
13485;SDS011;6815;59.336;17.998;2022-07-21T11:23:36;8.85;;;5.22;;
13485;SDS011;6815;59.336;17.998;2022-07-21T11:26:02;7.35;;;5.20;;
13485;SDS011;6815;59.336;17.998;2022-07-21T11:28:28;8.05;;;5.50;;
13485;SDS011;6815;59.336;17.998;2022-07-21T11:33:51;8.98;;;5.45;;
13485;SDS011;6815;59.336;17.998;2022-07-21T11:36:25;6.32;;;5.47;;
13485;SDS011;6815;59.336;17.998;2022-07-21T11:39:04;8.38;;;5.65;;
13485;SDS011;6815;59.336;17.998;2022-07-21T11:41:33;9.65;;;5.55;;
13485;SDS011;6815;59.336;17.998;2022-07-21T11:44:00;9.07;;;5.85;;
13485;SDS011;6815;59.336;17.998;2022-07-21T11:46:27;9.68;;;5.38;;
13485;SDS011;6815;59.336;17.998;2022-07-21T11:49:00;6.35;;;5.55;;
13485;SDS011;6815;59.336;17.998;2022-07-21T11:51:29;8.05;;;5.32;;
13485;SDS011;6815;59.336;17.998;2022-07-21T11:53:55;6.38;;;4.95;;
13485;SDS011;6815;59.336;17.998;2022-07-21T11:56:20;7.07;;;5.07;;
13485;SDS011;6815;59.336;17.998;2022-07-21T11:58:45;8.23;;;5.47;;
13485;SDS011;6815;59.336;17.998;2022-07-21T12:01:11;8.55;;;5.10;;
13485;SDS011;6815;59.336;17.998;2022-07-21T12:03:47;5.85;;;5.35;;
13485;SDS011;6815;59.336;17.998;2022-07-21T12:06:13;6.78;;;5.28;;
13485;SDS011;6815;59.336;17.998;2022-07-21T12:08:41;8.57;;;5.85;;
13485;SDS011;6815;59.336;17.998;2022-07-21T12:11:08;9.73;;;5.43;;
13485;SDS011;6815;59.336;17.998;2022-07-21T12:13:53;8.88;;;5.53;;
13485;SDS011;6815;59.336;17.998;2022-07-21T12:16:20;6.55;;;5.10;;
13485;SDS011;6815;59.336;17.998;2022-07-21T12:18:45;6.20;;;5.55;;
13485;SDS011;6815;59.336;17.998;2022-07-21T12:21:11;7.10;;;5.20;;
13485;SDS011;6815;59.336;17.998;2022-07-21T12:23:36;5.95;;;4.95;;
13485;SDS011;6815;59.336;17.998;2022-07-21T12:26:02;5.80;;;5.20;;
13485;SDS011;6815;59.336;17.998;2022-07-21T12:28:44;6.82;;;5.10;;
13485;SDS011;6815;59.336;17.998;2022-07-21T12:31:13;10.70;;;5.03;;
13485;SDS011;6815;59.336;17.998;2022-07-21T12:33:42;8.43;;;5.22;;
13485;SDS011;6815;59.336;17.998;2022-07-21T12:36:09;9.35;;;5.32;;
13485;SDS011;6815;59.336;17.998;2022-07-21T12:41:20;19.42;;;6.90;;
13485;SDS011;6815;59.336;17.998;2022-07-21T12:43:59;9.32;;;5.22;;
13485;SDS011;6815;59.336;17.998;2022-07-21T12:46:32;5.97;;;5.18;;
13485;SDS011;6815;59.336;17.998;2022-07-21T12:49:06;7.18;;;4.80;;
13485;SDS011;6815;59.336;17.998;2022-07-21T12:51:37;6.65;;;4.60;;
13485;SDS011;6815;59.336;17.998;2022-07-21T12:54:04;6.88;;;4.50;;
13485;SDS011;6815;59.336;17.998;2022-07-21T12:56:32;4.63;;;4.15;;
13485;SDS011;6815;59.336;17.998;2022-07-21T12:58:59;5.05;;;3.90;;
13485;SDS011;6815;59.336;17.998;2022-07-21T13:01:26;13.40;;;5.80;;
13485;SDS011;6815;59.336;17.998;2022-07-21T13:03:53;9.48;;;4.57;;
13485;SDS011;6815;59.336;17.998;2022-07-21T13:06:19;9.52;;;4.25;;
13485;SDS011;6815;59.336;17.998;2022-07-21T13:08:45;28.20;;;6.90;;
13485;SDS011;6815;59.336;17.998;2022-07-21T13:11:13;15.57;;;5.20;;
13485;SDS011;6815;59.336;17.998;2022-07-21T13:13:41;8.20;;;4.22;;
13485;SDS011;6815;59.336;17.998;2022-07-21T13:16:07;6.20;;;3.80;;
13485;SDS011;6815;59.336;17.998;2022-07-21T13:18:33;4.28;;;3.78;;
13485;SDS011;6815;59.336;17.998;2022-07-21T13:20:58;6.78;;;3.72;;
13485;SDS011;6815;59.336;17.998;2022-07-21T13:23:24;7.35;;;4.05;;
13485;SDS011;6815;59.336;17.998;2022-07-21T13:25:50;7.68;;;3.95;;
13485;SDS011;6815;59.336;17.998;2022-07-21T13:28:16;4.30;;;3.75;;
13485;SDS011;6815;59.336;17.998;2022-07-21T13:30:42;6.95;;;3.65;;
13485;SDS011;6815;59.336;17.998;2022-07-21T13:33:07;4.15;;;3.45;;
13485;SDS011;6815;59.336;17.998;2022-07-21T13:35:33;5.18;;;3.60;;
13485;SDS011;6815;59.336;17.998;2022-07-21T13:37:58;4.63;;;3.60;;
13485;SDS011;6815;59.336;17.998;2022-07-21T13:40:25;5.82;;;3.42;;
13485;SDS011;6815;59.336;17.998;2022-07-21T13:42:51;6.22;;;3.83;;
13485;SDS011;6815;59.336;17.998;2022-07-21T13:45:17;6.28;;;3.85;;
13485;SDS011;6815;59.336;17.998;2022-07-21T13:47:43;6.65;;;4.40;;
13485;SDS011;6815;59.336;17.998;2022-07-21T13:50:09;5.50;;;3.90;;
13485;SDS011;6815;59.336;17.998;2022-07-21T13:52:35;4.90;;;3.60;;
13485;SDS011;6815;59.336;17.998;2022-07-21T13:55:02;5.47;;;3.92;;
13485;SDS011;6815;59.336;17.998;2022-07-21T13:57:28;7.72;;;3.85;;
13485;SDS011;6815;59.336;17.998;2022-07-21T13:59:53;8.88;;;4.22;;
13485;SDS011;6815;59.336;17.998;2022-07-21T14:02:19;7.75;;;4.45;;
13485;SDS011;6815;59.336;17.998;2022-07-21T14:04:44;5.43;;;4.25;;
13485;SDS011;6815;59.336;17.998;2022-07-21T14:07:10;7.22;;;5.00;;
13485;SDS011;6815;59.336;17.998;2022-07-21T14:09:38;6.45;;;4.63;;
13485;SDS011;6815;59.336;17.998;2022-07-21T14:12:07;9.25;;;4.95;;
13485;SDS011;6815;59.336;17.998;2022-07-21T14:14:32;7.38;;;5.50;;
13485;SDS011;6815;59.336;17.998;2022-07-21T14:16:58;9.48;;;5.68;;
13485;SDS011;6815;59.336;17.998;2022-07-21T14:19:24;5.80;;;4.90;;
13485;SDS011;6815;59.336;17.998;2022-07-21T14:21:50;7.20;;;5.57;;
13485;SDS011;6815;59.336;17.998;2022-07-21T14:24:16;6.50;;;5.20;;
13485;SDS011;6815;59.336;17.998;2022-07-21T14:27:00;6.38;;;5.78;;
13485;SDS011;6815;59.336;17.998;2022-07-21T14:29:26;8.63;;;5.70;;
13485;SDS011;6815;59.336;17.998;2022-07-21T14:31:51;7.88;;;6.20;;
13485;SDS011;6815;59.336;17.998;2022-07-21T14:34:17;7.00;;;5.85;;
13485;SDS011;6815;59.336;17.998;2022-07-21T14:36:42;8.25;;;5.80;;
13485;SDS011;6815;59.336;17.998;2022-07-21T14:39:08;7.40;;;6.30;;
13485;SDS011;6815;59.336;17.998;2022-07-21T14:41:34;12.77;;;7.60;;
13485;SDS011;6815;59.336;17.998;2022-07-21T14:43:59;10.05;;;6.90;;
13485;SDS011;6815;59.336;17.998;2022-07-21T14:46:25;9.68;;;7.15;;
13485;SDS011;6815;59.336;17.998;2022-07-21T14:48:51;8.68;;;6.70;;
13485;SDS011;6815;59.336;17.998;2022-07-21T14:51:16;7.35;;;6.35;;
13485;SDS011;6815;59.336;17.998;2022-07-21T14:53:41;7.85;;;7.05;;
13485;SDS011;6815;59.336;17.998;2022-07-21T14:56:08;8.10;;;7.30;;
13485;SDS011;6815;59.336;17.998;2022-07-21T14:58:33;12.55;;;7.55;;
13485;SDS011;6815;59.336;17.998;2022-07-21T15:00:59;9.52;;;7.28;;
13485;SDS011;6815;59.336;17.998;2022-07-21T15:03:24;8.55;;;7.10;;
13485;SDS011;6815;59.336;17.998;2022-07-21T15:05:50;8.05;;;7.03;;
13485;SDS011;6815;59.336;17.998;2022-07-21T15:08:15;7.97;;;7.18;;
13485;SDS011;6815;59.336;17.998;2022-07-21T15:10:42;9.48;;;7.22;;
13485;SDS011;6815;59.336;17.998;2022-07-21T15:13:08;11.55;;;7.88;;
13485;SDS011;6815;59.336;17.998;2022-07-21T15:15:33;11.15;;;7.95;;
13485;SDS011;6815;59.336;17.998;2022-07-21T15:18:01;11.80;;;7.60;;
13485;SDS011;6815;59.336;17.998;2022-07-21T15:20:27;7.82;;;6.97;;